Terminal Aerodrome Forecast
Issued by NWS

Current Version | Previous Version | Graphics & Text | Print | Product List | Glossary On
Versions: 1 2 3 4 5 6 7 8 9 10 11 12 13 14 15 16 17 18 19 20 21 22 23 24 25 26 27 28 29 30 31 32 33 34 35 36 37 38
615
FTUS41 KRNK 252348
TAFLWB
TAF
KLWB 252348Z 2600/2624 12003KT P6SM SCT045
     FM260300 00000KT 5SM BR OVC018
      TEMPO 2609/2613 2SM -DZ BR OVC013
     FM261500 19005KT 6SM HZ OVC025
     FM261900 21006KT P6SM VCSH BKN035 OVC050=

USA.gov is the U.S. government's official web portal to all federal, state and local government web resources and services.